Shark River Manor, New Jersey
Current Conditions -  °F | °C
As of 1:55 PM on Friday 21 Nov 2014 (Local Time) from KBLM Reporting Station
Clear Clear  
Wind Chill: -4°   Ceiling: Unl
Heat Index:   Visibility: 10mi
Dew Point: -13°   Wind: 18mph
Humidity: 33%   Direction: 290°WNW
Pressure: 30.32"   Gusts: 24mph
Location:  40.1681°N, 74.0774°W
Report Text: KBLM 211855Z AUTO 29016G21KT 10SM CLR 02/M13 A3032 RMK AO1
Loading
Personal Weather Stations






























Interactive Weather Map New forecast layout! Learn more

10-Day Weather Forecast

Advertisements
Track Severe Weather on mobile